sensor_id;sensor_type;location;lat;lon;timestamp;pressure;altitude;pressure_sealevel;temperature;humidity
4570;BME280;2297;51.442;6.996;2023-05-25T00:00:11;101205.16;;;14.04;46.31
4570;BME280;2297;51.442;6.996;2023-05-25T00:02:38;101191.97;;;14.00;46.57
4570;BME280;2297;51.442;6.996;2023-05-25T00:05:07;101196.53;;;13.93;46.53
4570;BME280;2297;51.442;6.996;2023-05-25T00:07:35;101199.31;;;13.87;46.73
4570;BME280;2297;51.442;6.996;2023-05-25T00:10:01;101194.00;;;13.87;46.73
4570;BME280;2297;51.442;6.996;2023-05-25T00:12:28;101194.78;;;13.92;46.56
4570;BME280;2297;51.442;6.996;2023-05-25T00:14:55;101202.84;;;13.87;46.90
4570;BME280;2297;51.442;6.996;2023-05-25T00:17:21;101197.50;;;13.89;46.63
4570;BME280;2297;51.442;6.996;2023-05-25T00:19:48;101197.56;;;13.86;46.80
4570;BME280;2297;51.442;6.996;2023-05-25T00:22:16;101196.66;;;13.87;46.78
4570;BME280;2297;51.442;6.996;2023-05-25T00:24:44;101196.69;;;13.85;46.74
4570;BME280;2297;51.442;6.996;2023-05-25T00:27:11;101194.13;;;13.80;47.38
4570;BME280;2297;51.442;6.996;2023-05-25T00:29:38;101187.88;;;13.83;47.29
4570;BME280;2297;51.442;6.996;2023-05-25T00:32:05;101186.09;;;13.84;47.26
4570;BME280;2297;51.442;6.996;2023-05-25T00:34:31;101193.25;;;13.82;47.21
4570;BME280;2297;51.442;6.996;2023-05-25T00:36:58;101183.53;;;13.80;47.40
4570;BME280;2297;51.442;6.996;2023-05-25T00:39:26;101182.72;;;13.75;47.37
4570;BME280;2297;51.442;6.996;2023-05-25T00:41:53;101179.22;;;13.73;47.57
4570;BME280;2297;51.442;6.996;2023-05-25T00:44:20;101187.19;;;13.73;47.96
4570;BME280;2297;51.442;6.996;2023-05-25T00:46:48;101185.44;;;13.74;47.81
4570;BME280;2297;51.442;6.996;2023-05-25T00:49:16;101188.13;;;13.71;48.01
4570;BME280;2297;51.442;6.996;2023-05-25T00:51:43;101189.97;;;13.67;48.22
4570;BME280;2297;51.442;6.996;2023-05-25T00:54:11;101193.53;;;13.66;47.94
4570;BME280;2297;51.442;6.996;2023-05-25T00:56:43;101191.69;;;13.70;48.07
4570;BME280;2297;51.442;6.996;2023-05-25T00:59:15;101188.22;;;13.66;48.24
4570;BME280;2297;51.442;6.996;2023-05-25T01:01:44;101197.16;;;13.62;48.28
4570;BME280;2297;51.442;6.996;2023-05-25T01:04:14;101193.59;;;13.63;48.56
4570;BME280;2297;51.442;6.996;2023-05-25T01:06:43;101183.94;;;13.60;48.18
4570;BME280;2297;51.442;6.996;2023-05-25T01:09:15;101189.19;;;13.62;48.35
4570;BME280;2297;51.442;6.996;2023-05-25T01:11:48;101190.09;;;13.61;48.49
4570;BME280;2297;51.442;6.996;2023-05-25T01:14:18;101195.41;;;13.61;48.17
4570;BME280;2297;51.442;6.996;2023-05-25T01:16:45;101202.56;;;13.56;48.46
4570;BME280;2297;51.442;6.996;2023-05-25T01:19:12;101200.06;;;13.50;48.47
4570;BME280;2297;51.442;6.996;2023-05-25T01:21:44;101190.34;;;13.49;48.75
4570;BME280;2297;51.442;6.996;2023-05-25T01:24:15;101192.13;;;13.46;48.61
4570;BME280;2297;51.442;6.996;2023-05-25T01:26:52;101201.00;;;13.45;48.77
4570;BME280;2297;51.442;6.996;2023-05-25T01:29:21;101201.00;;;13.45;48.55
4570;BME280;2297;51.442;6.996;2023-05-25T01:31:49;101197.50;;;13.43;48.62
4570;BME280;2297;51.442;6.996;2023-05-25T01:34:18;101204.63;;;13.41;48.61
4570;BME280;2297;51.442;6.996;2023-05-25T01:36:47;101204.56;;;13.44;48.84
4570;BME280;2297;51.442;6.996;2023-05-25T01:39:14;101210.81;;;13.42;48.79
4570;BME280;2297;51.442;6.996;2023-05-25T01:41:41;101202.84;;;13.42;48.66
4570;BME280;2297;51.442;6.996;2023-05-25T01:44:07;101202.94;;;13.37;49.00
4570;BME280;2297;51.442;6.996;2023-05-25T01:46:37;101203.84;;;13.35;48.80
4570;BME280;2297;51.442;6.996;2023-05-25T01:49:11;101195.09;;;13.29;49.07
4570;BME280;2297;51.442;6.996;2023-05-25T01:51:51;101196.84;;;13.30;49.14
4570;BME280;2297;51.442;6.996;2023-05-25T01:54:21;101199.53;;;13.29;49.22
4570;BME280;2297;51.442;6.996;2023-05-25T01:56:53;101197.75;;;13.31;48.79
4570;BME280;2297;51.442;6.996;2023-05-25T01:59:22;101203.16;;;13.25;49.12
4570;BME280;2297;51.442;6.996;2023-05-25T02:01:49;101207.56;;;13.24;49.25
4570;BME280;2297;51.442;6.996;2023-05-25T02:04:17;101201.41;;;13.24;48.83
4570;BME280;2297;51.442;6.996;2023-05-25T02:06:47;101205.91;;;13.17;49.21
4570;BME280;2297;51.442;6.996;2023-05-25T02:09:15;101210.34;;;13.17;49.32
4570;BME280;2297;51.442;6.996;2023-05-25T02:11:41;101204.28;;;13.08;49.23
4570;BME280;2297;51.442;6.996;2023-05-25T02:14:08;101201.56;;;13.13;49.55
4570;BME280;2297;51.442;6.996;2023-05-25T02:16:35;101213.13;;;13.09;49.59
4570;BME280;2297;51.442;6.996;2023-05-25T02:19:02;101214.97;;;13.04;49.45
4570;BME280;2297;51.442;6.996;2023-05-25T02:21:28;101215.91;;;13.01;49.90
4570;BME280;2297;51.442;6.996;2023-05-25T02:23:55;101214.25;;;12.95;49.64
4570;BME280;2297;51.442;6.996;2023-05-25T02:26:24;101210.81;;;12.89;50.03
4570;BME280;2297;51.442;6.996;2023-05-25T02:28:50;101217.84;;;12.90;50.29
4570;BME280;2297;51.442;6.996;2023-05-25T02:31:17;101217.84;;;12.91;50.29
4570;BME280;2297;51.442;6.996;2023-05-25T02:33:44;101211.75;;;12.86;50.15
4570;BME280;2297;51.442;6.996;2023-05-25T02:36:10;101216.19;;;12.84;50.24
4570;BME280;2297;51.442;6.996;2023-05-25T02:38:37;101220.59;;;12.85;50.56
4570;BME280;2297;51.442;6.996;2023-05-25T02:41:03;101216.19;;;12.83;50.63
4570;BME280;2297;51.442;6.996;2023-05-25T02:43:31;101219.88;;;12.75;50.78
4570;BME280;2297;51.442;6.996;2023-05-25T02:45:58;101211.03;;;12.75;50.88
4570;BME280;2297;51.442;6.996;2023-05-25T02:48:25;101213.72;;;12.72;50.58
4570;BME280;2297;51.442;6.996;2023-05-25T02:50:51;101212.84;;;12.71;50.70
4570;BME280;2297;51.442;6.996;2023-05-25T02:53:18;101218.19;;;12.68;50.99
4570;BME280;2297;51.442;6.996;2023-05-25T02:55:44;101220.91;;;12.65;50.95
4570;BME280;2297;51.442;6.996;2023-05-25T02:58:11;101217.34;;;12.64;51.01
4570;BME280;2297;51.442;6.996;2023-05-25T03:00:39;101222.66;;;12.66;50.95
4570;BME280;2297;51.442;6.996;2023-05-25T03:03:07;101227.16;;;12.61;50.70
4570;BME280;2297;51.442;6.996;2023-05-25T03:05:33;101225.44;;;12.57;50.88
4570;BME280;2297;51.442;6.996;2023-05-25T03:08:00;101229.13;;;12.46;51.20
4570;BME280;2297;51.442;6.996;2023-05-25T03:10:27;101226.38;;;12.51;50.93
4570;BME280;2297;51.442;6.996;2023-05-25T03:12:53;101228.97;;;12.56;50.88
4570;BME280;2297;51.442;6.996;2023-05-25T03:15:20;101224.53;;;12.58;50.76
4570;BME280;2297;51.442;6.996;2023-05-25T03:17:48;101225.44;;;12.57;50.39
4570;BME280;2297;51.442;6.996;2023-05-25T03:20:15;101231.66;;;12.54;50.79
4570;BME280;2297;51.442;6.996;2023-05-25T03:22:42;101232.53;;;12.55;50.24
4570;BME280;2297;51.442;6.996;2023-05-25T03:25:09;101236.03;;;12.57;50.42
4570;BME280;2297;51.442;6.996;2023-05-25T03:27:37;101236.03;;;12.57;50.27
4570;BME280;2297;51.442;6.996;2023-05-25T03:30:05;101233.38;;;12.55;50.53
4570;BME280;2297;51.442;6.996;2023-05-25T03:32:32;101239.53;;;12.59;50.41
4570;BME280;2297;51.442;6.996;2023-05-25T03:35:00;101242.22;;;12.57;50.45
4570;BME280;2297;51.442;6.996;2023-05-25T03:37:26;101244.81;;;12.59;50.50
4570;BME280;2297;51.442;6.996;2023-05-25T03:39:53;101244.81;;;12.59;50.37
4570;BME280;2297;51.442;6.996;2023-05-25T03:42:19;101243.91;;;12.61;50.11
4570;BME280;2297;51.442;6.996;2023-05-25T03:44:46;101244.00;;;12.57;50.31
4570;BME280;2297;51.442;6.996;2023-05-25T03:47:12;101243.13;;;12.55;50.73
4570;BME280;2297;51.442;6.996;2023-05-25T03:49:39;101255.50;;;12.53;50.78
4570;BME280;2297;51.442;6.996;2023-05-25T03:52:07;101243.13;;;12.55;50.82
4570;BME280;2297;51.442;6.996;2023-05-25T03:54:34;101250.19;;;12.56;50.87
4570;BME280;2297;51.442;6.996;2023-05-25T03:57:00;101256.34;;;12.56;50.48
4570;BME280;2297;51.442;6.996;2023-05-25T03:59:28;101262.53;;;12.57;50.49
4570;BME280;2297;51.442;6.996;2023-05-25T04:01:54;101260.81;;;12.53;50.89
4570;BME280;2297;51.442;6.996;2023-05-25T04:04:21;101267.84;;;12.54;50.78
4570;BME280;2297;51.442;6.996;2023-05-25T04:06:47;101270.50;;;12.54;51.00
4570;BME280;2297;51.442;6.996;2023-05-25T04:09:17;101273.13;;;12.57;51.05
4570;BME280;2297;51.442;6.996;2023-05-25T04:11:44;101279.31;;;12.57;50.87
4570;BME280;2297;51.442;6.996;2023-05-25T04:14:10;101286.41;;;12.54;51.07
4570;BME280;2297;51.442;6.996;2023-05-25T04:16:37;101285.53;;;12.55;50.89
4570;BME280;2297;51.442;6.996;2023-05-25T04:19:05;101278.44;;;12.57;50.99
4570;BME280;2297;51.442;6.996;2023-05-25T04:21:32;101285.50;;;12.56;51.29
4570;BME280;2297;51.442;6.996;2023-05-25T04:23:58;101287.22;;;12.59;50.74
4570;BME280;2297;51.442;6.996;2023-05-25T04:26:26;101286.59;;;12.41;51.28
4570;BME280;2297;51.442;6.996;2023-05-25T04:28:53;101280.31;;;12.47;51.26
4570;BME280;2297;51.442;6.996;2023-05-25T04:31:20;101278.56;;;12.47;51.24
4570;BME280;2297;51.442;6.996;2023-05-25T04:33:46;101274.97;;;12.52;51.12
4570;BME280;2297;51.442;6.996;2023-05-25T04:36:13;101281.97;;;12.56;51.27
4570;BME280;2297;51.442;6.996;2023-05-25T04:38:40;101280.22;;;12.55;51.29
4570;BME280;2297;51.442;6.996;2023-05-25T04:41:07;101283.75;;;12.57;51.33
4570;BME280;2297;51.442;6.996;2023-05-25T04:43:35;101275.75;;;12.58;51.36
4570;BME280;2297;51.442;6.996;2023-05-25T04:46:01;101278.38;;;12.60;51.02
4570;BME280;2297;51.442;6.996;2023-05-25T04:48:29;101273.13;;;12.57;51.07
4570;BME280;2297;51.442;6.996;2023-05-25T04:50:56;101279.25;;;12.60;51.20
4570;BME280;2297;51.442;6.996;2023-05-25T04:53:27;101283.66;;;12.61;51.24
4570;BME280;2297;51.442;6.996;2023-05-25T04:56:04;101297.81;;;12.59;51.29
4570;BME280;2297;51.442;6.996;2023-05-25T04:58:31;101297.78;;;12.62;51.13
4570;BME280;2297;51.442;6.996;2023-05-25T05:00:59;101285.38;;;12.64;50.86
4570;BME280;2297;51.442;6.996;2023-05-25T05:03:26;101297.78;;;12.62;50.84
4570;BME280;2297;51.442;6.996;2023-05-25T05:05:52;101310.19;;;12.60;51.09
4570;BME280;2297;51.442;6.996;2023-05-25T05:08:19;101311.94;;;12.59;50.63
4570;BME280;2297;51.442;6.996;2023-05-25T05:10:46;101318.06;;;12.64;50.70
4570;BME280;2297;51.442;6.996;2023-05-25T05:13:13;101311.88;;;12.64;50.75
4570;BME280;2297;51.442;6.996;2023-05-25T05:15:39;101318.91;;;12.68;50.78
4570;BME280;2297;51.442;6.996;2023-05-25T05:18:10;101318.00;;;12.69;50.58
4570;BME280;2297;51.442;6.996;2023-05-25T05:20:38;101326.81;;;12.70;51.00
4570;BME280;2297;51.442;6.996;2023-05-25T05:23:05;101322.34;;;12.75;50.79
4570;BME280;2297;51.442;6.996;2023-05-25T05:25:32;101335.53;;;12.79;50.55
4570;BME280;2297;51.442;6.996;2023-05-25T05:27:59;101333.84;;;12.75;50.50
4570;BME280;2297;51.442;6.996;2023-05-25T05:30:25;101335.53;;;12.79;50.35
4570;BME280;2297;51.442;6.996;2023-05-25T05:32:52;101332.78;;;12.86;50.52
4570;BME280;2297;51.442;6.996;2023-05-25T05:35:20;101344.25;;;12.88;50.04
4570;BME280;2297;51.442;6.996;2023-05-25T05:37:47;101339.78;;;12.90;50.15
4570;BME280;2297;51.442;6.996;2023-05-25T05:40:14;101347.69;;;12.94;50.34
4570;BME280;2297;51.442;6.996;2023-05-25T05:42:40;101350.41;;;12.90;50.25
4570;BME280;2297;51.442;6.996;2023-05-25T05:45:08;101353.78;;;13.01;50.29
4570;BME280;2297;51.442;6.996;2023-05-25T05:47:34;101352.97;;;12.96;50.22
4570;BME280;2297;51.442;6.996;2023-05-25T05:50:01;101360.03;;;12.97;49.99
4570;BME280;2297;51.442;6.996;2023-05-25T05:52:29;101366.16;;;12.99;50.11
4570;BME280;2297;51.442;6.996;2023-05-25T05:54:56;101365.41;;;12.91;50.45
4570;BME280;2297;51.442;6.996;2023-05-25T05:57:22;101360.88;;;12.99;50.04
4570;BME280;2297;51.442;6.996;2023-05-25T05:59:49;101366.09;;;13.05;50.15
4570;BME280;2297;51.442;6.996;2023-05-25T06:02:16;101365.25;;;13.02;50.01
4570;BME280;2297;51.442;6.996;2023-05-25T06:04:42;101364.34;;;13.04;49.92
4570;BME280;2297;51.442;6.996;2023-05-25T06:07:09;101367.06;;;13.00;50.30
4570;BME280;2297;51.442;6.996;2023-05-25T06:09:37;101359.94;;;13.02;50.43
4570;BME280;2297;51.442;6.996;2023-05-25T06:12:05;101357.25;;;13.06;50.39
4570;BME280;2297;51.442;6.996;2023-05-25T06:14:31;101358.09;;;13.10;50.18
4570;BME280;2297;51.442;6.996;2023-05-25T06:16:58;101361.50;;;13.18;50.02
4570;BME280;2297;51.442;6.996;2023-05-25T06:19:25;101357.91;;;13.21;49.75
4570;BME280;2297;51.442;6.996;2023-05-25T06:21:51;101364.13;;;13.20;49.87
4570;BME280;2297;51.442;6.996;2023-05-25T06:24:18;101364.09;;;13.21;49.80
4570;BME280;2297;51.442;6.996;2023-05-25T06:26:46;101369.41;;;13.20;50.00
4570;BME280;2297;51.442;6.996;2023-05-25T06:29:13;101368.56;;;13.18;50.10
4570;BME280;2297;51.442;6.996;2023-05-25T06:31:39;101372.91;;;13.25;49.99
4570;BME280;2297;51.442;6.996;2023-05-25T06:34:06;101377.31;;;13.27;49.69
4570;BME280;2297;51.442;6.996;2023-05-25T06:36:33;101380.78;;;13.31;49.71
4570;BME280;2297;51.442;6.996;2023-05-25T06:38:59;101374.69;;;13.26;49.63
4570;BME280;2297;51.442;6.996;2023-05-25T06:41:26;101389.56;;;13.35;49.95
4570;BME280;2297;51.442;6.996;2023-05-25T06:43:54;101381.63;;;13.33;49.78
4570;BME280;2297;51.442;6.996;2023-05-25T06:46:20;101393.00;;;13.41;49.58
4570;BME280;2297;51.442;6.996;2023-05-25T06:48:47;101392.00;;;13.49;49.55
4570;BME280;2297;51.442;6.996;2023-05-25T06:51:14;101398.13;;;13.54;49.42
4570;BME280;2297;51.442;6.996;2023-05-25T06:53:40;101396.28;;;13.59;49.58
4570;BME280;2297;51.442;6.996;2023-05-25T06:56:07;101397.19;;;13.55;49.25
4570;BME280;2297;51.442;6.996;2023-05-25T06:58:34;101395.25;;;13.66;49.40
4570;BME280;2297;51.442;6.996;2023-05-25T07:01:02;101398.75;;;13.70;49.34
4570;BME280;2297;51.442;6.996;2023-05-25T07:03:29;101396.97;;;13.70;48.78
4570;BME280;2297;51.442;6.996;2023-05-25T07:05:57;101396.94;;;13.72;48.79
4570;BME280;2297;51.442;6.996;2023-05-25T07:08:24;101396.75;;;13.83;48.72
4570;BME280;2297;51.442;6.996;2023-05-25T07:10:50;101398.41;;;13.90;48.46
4570;BME280;2297;51.442;6.996;2023-05-25T07:13:17;101402.81;;;13.91;48.29
4570;BME280;2297;51.442;6.996;2023-05-25T07:15:43;101401.84;;;13.95;48.10
4570;BME280;2297;51.442;6.996;2023-05-25T07:18:12;101403.00;;;13.78;47.97
4570;BME280;2297;51.442;6.996;2023-05-25T07:20:39;101407.09;;;13.98;47.87
4570;BME280;2297;51.442;6.996;2023-05-25T07:23:08;101403.66;;;13.93;47.91
4570;BME280;2297;51.442;6.996;2023-05-25T07:25:35;101408.88;;;13.99;47.87
4570;BME280;2297;51.442;6.996;2023-05-25T07:28:01;101405.00;;;14.16;47.50
4570;BME280;2297;51.442;6.996;2023-05-25T07:30:28;101403.91;;;14.30;47.16
4570;BME280;2297;51.442;6.996;2023-05-25T07:32:55;101408.03;;;14.45;46.78
4570;BME280;2297;51.442;6.996;2023-05-25T07:35:24;101411.50;;;14.47;46.65
4570;BME280;2297;51.442;6.996;2023-05-25T07:38:00;101414.53;;;14.74;45.81
4570;BME280;2297;51.442;6.996;2023-05-25T07:40:28;101409.16;;;14.77;45.85
4570;BME280;2297;51.442;6.996;2023-05-25T07:42:55;101414.28;;;14.87;45.54
4570;BME280;2297;51.442;6.996;2023-05-25T07:45:22;101413.13;;;14.99;45.39
4570;BME280;2297;51.442;6.996;2023-05-25T07:47:49;101419.19;;;15.05;45.23
4570;BME280;2297;51.442;6.996;2023-05-25T07:50:16;101409.56;;;15.00;45.16
4570;BME280;2297;51.442;6.996;2023-05-25T07:52:44;101418.41;;;15.00;44.80
4570;BME280;2297;51.442;6.996;2023-05-25T07:55:11;101423.53;;;15.11;44.71
4570;BME280;2297;51.442;6.996;2023-05-25T07:57:38;101424.50;;;15.05;44.62
4570;BME280;2297;51.442;6.996;2023-05-25T08:00:05;101422.63;;;15.10;44.93
4570;BME280;2297;51.442;6.996;2023-05-25T08:02:33;101426.88;;;15.21;44.92
4570;BME280;2297;51.442;6.996;2023-05-25T08:04:59;101422.94;;;15.37;44.35
4570;BME280;2297;51.442;6.996;2023-05-25T08:07:30;101430.47;;;15.56;43.41
4570;BME280;2297;51.442;6.996;2023-05-25T08:09:58;101429.63;;;15.54;43.08
4570;BME280;2297;51.442;6.996;2023-05-25T08:12:25;101425.66;;;15.72;43.10
4570;BME280;2297;51.442;6.996;2023-05-25T08:14:51;101420.81;;;15.88;43.26
4570;BME280;2297;51.442;6.996;2023-05-25T08:17:19;101433.06;;;15.95;42.31
4570;BME280;2297;51.442;6.996;2023-05-25T08:19:46;101423.44;;;15.89;41.87
4570;BME280;2297;51.442;6.996;2023-05-25T08:22:12;101426.47;;;15.75;42.42
4570;BME280;2297;51.442;6.996;2023-05-25T08:24:39;101426.22;;;15.85;42.14
4570;BME280;2297;51.442;6.996;2023-05-25T08:27:07;101433.44;;;15.79;41.98
4570;BME280;2297;51.442;6.996;2023-05-25T08:29:33;101423.59;;;15.83;42.47
4570;BME280;2297;51.442;6.996;2023-05-25T08:32:00;101430.50;;;15.90;42.19
4570;BME280;2297;51.442;6.996;2023-05-25T08:34:27;101432.13;;;15.96;41.89
4570;BME280;2297;51.442;6.996;2023-05-25T08:36:53;101432.06;;;16.01;41.41
4570;BME280;2297;51.442;6.996;2023-05-25T08:39:20;101430.03;;;16.10;40.63
4570;BME280;2297;51.442;6.996;2023-05-25T08:41:49;101443.38;;;16.09;41.03
4570;BME280;2297;51.442;6.996;2023-05-25T08:44:17;101437.78;;;16.20;41.82
4570;BME280;2297;51.442;6.996;2023-05-25T08:46:45;101446.72;;;16.17;40.76
4570;BME280;2297;51.442;6.996;2023-05-25T08:49:13;101448.44;;;16.20;40.77
4570;BME280;2297;51.442;6.996;2023-05-25T08:51:41;101448.75;;;16.07;41.11
4570;BME280;2297;51.442;6.996;2023-05-25T08:54:11;101445.91;;;16.15;41.33
4570;BME280;2297;51.442;6.996;2023-05-25T08:56:48;101448.91;;;16.36;41.73
4570;BME280;2297;51.442;6.996;2023-05-25T08:59:25;101449.44;;;16.49;41.45
4570;BME280;2297;51.442;6.996;2023-05-25T09:01:56;101455.38;;;16.58;40.76
4570;BME280;2297;51.442;6.996;2023-05-25T09:04:24;101450.75;;;16.65;40.38
4570;BME280;2297;51.442;6.996;2023-05-25T09:06:51;101453.41;;;16.67;40.02
4570;BME280;2297;51.442;6.996;2023-05-25T09:09:18;101442.56;;;16.71;39.69
4570;BME280;2297;51.442;6.996;2023-05-25T09:11:46;101448.06;;;16.67;39.62
4570;BME280;2297;51.442;6.996;2023-05-25T09:14:13;101452.91;;;16.85;39.97
4570;BME280;2297;51.442;6.996;2023-05-25T09:16:41;101451.72;;;16.94;40.03
4570;BME280;2297;51.442;6.996;2023-05-25T09:19:08;101454.09;;;16.73;39.47
4570;BME280;2297;51.442;6.996;2023-05-25T09:21:34;101451.91;;;16.88;39.91
4570;BME280;2297;51.442;6.996;2023-05-25T09:24:01;101456.09;;;16.96;40.51
4570;BME280;2297;51.442;6.996;2023-05-25T09:26:28;101457.66;;;16.72;40.00
4570;BME280;2297;51.442;6.996;2023-05-25T09:28:55;101459.09;;;16.86;39.76
4570;BME280;2297;51.442;6.996;2023-05-25T09:31:22;101459.09;;;16.86;40.63
4570;BME280;2297;51.442;6.996;2023-05-25T09:33:51;101458.94;;;16.92;40.14
4570;BME280;2297;51.442;6.996;2023-05-25T09:36:24;101462.75;;;16.82;40.16
4570;BME280;2297;51.442;6.996;2023-05-25T09:38:51;101470.31;;;16.66;39.78
4570;BME280;2297;51.442;6.996;2023-05-25T09:41:18;101467.09;;;16.53;39.55
4570;BME280;2297;51.442;6.996;2023-05-25T09:43:46;101460.69;;;16.27;39.74
4570;BME280;2297;51.442;6.996;2023-05-25T09:46:13;101470.66;;;16.52;40.07
4570;BME280;2297;51.442;6.996;2023-05-25T09:48:39;101475.25;;;16.48;40.68
4570;BME280;2297;51.442;6.996;2023-05-25T09:51:09;101476.00;;;16.52;40.16
4570;BME280;2297;51.442;6.996;2023-05-25T09:53:36;101475.03;;;16.23;39.88
4570;BME280;2297;51.442;6.996;2023-05-25T09:58:30;101480.69;;;16.43;40.00
4570;BME280;2297;51.442;6.996;2023-05-25T10:00:58;101482.94;;;16.59;39.82
4570;BME280;2297;51.442;6.996;2023-05-25T10:03:25;101482.75;;;16.65;39.88
4570;BME280;2297;51.442;6.996;2023-05-25T10:05:53;101485.91;;;16.79;40.39
4570;BME280;2297;51.442;6.996;2023-05-25T10:08:22;101493.63;;;16.90;40.17
4570;BME280;2297;51.442;6.996;2023-05-25T10:10:49;101489.34;;;16.85;40.04
4570;BME280;2297;51.442;6.996;2023-05-25T10:13:19;101495.97;;;16.70;40.10
4570;BME280;2297;51.442;6.996;2023-05-25T10:15:47;101488.28;;;16.90;39.83
4570;BME280;2297;51.442;6.996;2023-05-25T10:18:19;101494.69;;;16.85;40.09
4570;BME280;2297;51.442;6.996;2023-05-25T10:20:52;101503.81;;;16.74;40.45
4570;BME280;2297;51.442;6.996;2023-05-25T10:23:26;101494.16;;;17.03;39.96
4570;BME280;2297;51.442;6.996;2023-05-25T10:25:59;101494.00;;;16.76;39.12
4570;BME280;2297;51.442;6.996;2023-05-25T10:28:28;101499.59;;;17.00;39.18
4570;BME280;2297;51.442;6.996;2023-05-25T10:30:56;101494.50;;;17.22;39.42
4570;BME280;2297;51.442;6.996;2023-05-25T10:33:24;101492.22;;;17.38;39.45
4570;BME280;2297;51.442;6.996;2023-05-25T10:35:53;101491.38;;;17.36;39.18
4570;BME280;2297;51.442;6.996;2023-05-25T10:38:20;101496.25;;;17.52;39.09
4570;BME280;2297;51.442;6.996;2023-05-25T10:40:49;101499.28;;;17.69;38.80
4570;BME280;2297;51.442;6.996;2023-05-25T10:43:17;101495.75;;;17.69;38.56
4570;BME280;2297;51.442;6.996;2023-05-25T10:45:45;101492.69;;;17.81;38.58
4570;BME280;2297;51.442;6.996;2023-05-25T10:48:12;101490.88;;;17.82;38.62
4570;BME280;2297;51.442;6.996;2023-05-25T10:50:39;101499.41;;;17.36;38.13
4570;BME280;2297;51.442;6.996;2023-05-25T10:53:08;101493.94;;;17.11;38.49
4570;BME280;2297;51.442;6.996;2023-05-25T10:55:41;101494.22;;;17.32;38.05
4570;BME280;2297;51.442;6.996;2023-05-25T10:58:11;101488.44;;;17.16;38.44
4570;BME280;2297;51.442;6.996;2023-05-25T11:00:38;101491.84;;;17.21;38.62
4570;BME280;2297;51.442;6.996;2023-05-25T11:03:05;101485.34;;;17.01;38.61
4570;BME280;2297;51.442;6.996;2023-05-25T11:05:35;101489.91;;;17.26;38.55
4570;BME280;2297;51.442;6.996;2023-05-25T11:08:04;101486.16;;;17.33;38.64
4570;BME280;2297;51.442;6.996;2023-05-25T11:10:50;101489.09;;;17.24;39.17
4570;BME280;2297;51.442;6.996;2023-05-25T11:13:36;101491.44;;;17.35;39.17
4570;BME280;2297;51.442;6.996;2023-05-25T11:16:22;101486.69;;;17.44;39.12
4570;BME280;2297;51.442;6.996;2023-05-25T11:19:00;101487.44;;;16.90;39.24
4570;BME280;2297;51.442;6.996;2023-05-25T11:21:41;101478.22;;;17.30;39.18
4570;BME280;2297;51.442;6.996;2023-05-25T11:24:11;101478.78;;;17.41;39.11
4570;BME280;2297;51.442;6.996;2023-05-25T11:26:52;101473.84;;;17.27;38.69
4570;BME280;2297;51.442;6.996;2023-05-25T11:29:21;101475.09;;;17.45;39.00
4570;BME280;2297;51.442;6.996;2023-05-25T11:31:53;101463.53;;;17.73;38.62
4570;BME280;2297;51.442;6.996;2023-05-25T11:34:21;101463.44;;;17.76;38.60
4570;BME280;2297;51.442;6.996;2023-05-25T11:36:53;101456.56;;;17.96;38.15
4570;BME280;2297;51.442;6.996;2023-05-25T11:39:21;101451.53;;;17.87;38.19
4570;BME280;2297;51.442;6.996;2023-05-25T11:41:50;101456.06;;;17.85;38.71
4570;BME280;2297;51.442;6.996;2023-05-25T11:44:26;101457.47;;;17.95;37.97
4570;BME280;2297;51.442;6.996;2023-05-25T11:46:54;101459.00;;;17.47;38.80
4570;BME280;2297;51.442;6.996;2023-05-25T11:49:22;101453.03;;;17.39;39.01
4570;BME280;2297;51.442;6.996;2023-05-25T11:51:49;101455.16;;;17.27;39.74
4570;BME280;2297;51.442;6.996;2023-05-25T11:54:23;101451.16;;;17.71;38.15
4570;BME280;2297;51.442;6.996;2023-05-25T11:56:50;101446.19;;;17.87;38.13
4570;BME280;2297;51.442;6.996;2023-05-25T11:59:17;101447.44;;;18.02;37.97
4570;BME280;2297;51.442;6.996;2023-05-25T12:01:54;101445.50;;;18.07;37.96
4570;BME280;2297;51.442;6.996;2023-05-25T12:04:20;101443.13;;;17.98;37.78
4570;BME280;2297;51.442;6.996;2023-05-25T12:06:47;101449.56;;;17.92;37.76
4570;BME280;2297;51.442;6.996;2023-05-25T12:09:19;101458.09;;;17.76;38.40
4570;BME280;2297;51.442;6.996;2023-05-25T12:11:46;101454.91;;;17.65;38.68
4570;BME280;2297;51.442;6.996;2023-05-25T12:14:13;101452.13;;;17.68;37.91
4570;BME280;2297;51.442;6.996;2023-05-25T12:16:41;101447.78;;;17.64;37.36
4570;BME280;2297;51.442;6.996;2023-05-25T12:19:09;101445.72;;;17.45;37.98
4570;BME280;2297;51.442;6.996;2023-05-25T12:21:37;101444.19;;;17.38;38.95
4570;BME280;2297;51.442;6.996;2023-05-25T12:24:04;101437.25;;;17.31;39.37
4570;BME280;2297;51.442;6.996;2023-05-25T12:26:31;101439.22;;;17.53;39.54
4570;BME280;2297;51.442;6.996;2023-05-25T12:28:59;101439.44;;;17.75;39.04
4570;BME280;2297;51.442;6.996;2023-05-25T12:31:26;101429.22;;;17.88;38.11
4570;BME280;2297;51.442;6.996;2023-05-25T12:34:03;101428.72;;;18.03;37.63
4570;BME280;2297;51.442;6.996;2023-05-25T12:36:39;101429.78;;;18.23;37.23
4570;BME280;2297;51.442;6.996;2023-05-25T12:39:08;101422.06;;;18.40;36.95
4570;BME280;2297;51.442;6.996;2023-05-25T12:41:46;101419.59;;;18.59;36.79
4570;BME280;2297;51.442;6.996;2023-05-25T12:44:22;101425.19;;;18.77;36.58
4570;BME280;2297;51.442;6.996;2023-05-25T12:46:50;101415.47;;;18.98;36.24
4570;BME280;2297;51.442;6.996;2023-05-25T12:49:28;101416.84;;;19.32;35.83
4570;BME280;2297;51.442;6.996;2023-05-25T12:51:58;101416.34;;;19.44;35.04
4570;BME280;2297;51.442;6.996;2023-05-25T12:54:36;101411.59;;;19.51;34.83
4570;BME280;2297;51.442;6.996;2023-05-25T12:57:04;101419.31;;;19.59;34.55
4570;BME280;2297;51.442;6.996;2023-05-25T12:59:33;101415.63;;;19.84;34.11
4570;BME280;2297;51.442;6.996;2023-05-25T13:02:00;101413.53;;;19.90;33.73
4570;BME280;2297;51.442;6.996;2023-05-25T13:04:27;101420.53;;;19.72;34.32
4570;BME280;2297;51.442;6.996;2023-05-25T13:06:53;101415.53;;;19.85;34.31
4570;BME280;2297;51.442;6.996;2023-05-25T13:09:24;101415.66;;;19.82;34.16
4570;BME280;2297;51.442;6.996;2023-05-25T13:11:51;101406.06;;;19.76;35.02
4570;BME280;2297;51.442;6.996;2023-05-25T13:14:19;101395.91;;;19.85;34.50
4570;BME280;2297;51.442;6.996;2023-05-25T13:16:46;101399.56;;;19.82;34.66